Terminal Aerodrome Forecast
Issued by NWS

Home | Current Version | Previous Version | Text Only | Print | Product List | Glossary On
Versions: 1 2 3 4 5 6 7 8 9 10 11 12 13 14
000
FTUS45 KRIW 250500
TAFBPI
TAF
KBPI 250538Z 2506/2606 VRB06KT P6SM VCSH SCT035 BKN050
     FM250800 VRB05KT P6SM VCFG FEW004 SCT020 BKN035
     FM251600 25007KT P6SM BKN060
     FM252000 32012KT P6SM VCSH SCT040 BKN060
     FM260400 34007KT P6SM SCT050=

USA.gov is the U.S. government's official web portal to all federal, state and local government web resources and services.